createdAt,value
2018-02-24T00:01:04.142Z,37.73
2018-02-24T00:03:33.589Z,38.23
2018-02-24T00:06:01.278Z,40.47
2018-02-24T00:08:28.940Z,35.80
2018-02-24T00:10:56.529Z,35.53
2018-02-24T00:13:24.133Z,36.33
2018-02-24T00:15:51.719Z,36.47
2018-02-24T00:18:21.020Z,42.97
2018-02-24T00:20:49.476Z,40.07
2018-02-24T00:23:17.844Z,39.63
2018-02-24T00:25:46.217Z,36.60
2018-02-24T00:28:14.221Z,37.30
2018-02-24T00:30:42.651Z,35.07
2018-02-24T00:33:11.839Z,35.60
2018-02-24T00:35:40.116Z,37.67
2018-02-24T00:38:07.715Z,41.77
2018-02-24T00:40:35.303Z,44.30
2018-02-24T00:43:04.011Z,37.00
2018-02-24T00:45:31.582Z,36.47
2018-02-24T00:47:59.207Z,36.47
2018-02-24T00:50:26.803Z,33.63
2018-02-24T00:52:55.476Z,42.77
2018-02-24T00:55:23.508Z,36.03
2018-02-24T00:57:51.839Z,39.53
2018-02-24T01:00:19.504Z,36.83
2018-02-24T01:02:47.127Z,39.70
2018-02-24T01:05:15.104Z,40.60
2018-02-24T01:07:42.681Z,37.53
2018-02-24T01:10:10.873Z,35.67
2018-02-24T01:12:39.199Z,35.43
2018-02-24T01:15:06.801Z,36.67
2018-02-24T01:17:35.148Z,33.20
2018-02-24T01:20:02.809Z,35.73
2018-02-24T01:22:31.150Z,33.97
2018-02-24T01:24:58.918Z,40.97
2018-02-24T01:27:27.096Z,33.90
2018-02-24T01:29:55.919Z,39.27
2018-02-24T01:32:24.401Z,30.50
2018-02-24T01:34:52.636Z,35.70
2018-02-24T01:37:20.222Z,33.63
2018-02-24T01:39:47.833Z,31.07
2018-02-24T01:42:17.518Z,34.17
2018-02-24T01:44:45.247Z,37.50
2018-02-24T01:47:13.227Z,32.43
2018-02-24T01:49:41.894Z,34.57
2018-02-24T01:52:11.261Z,33.10
2018-02-24T01:54:40.071Z,30.03
2018-02-24T01:57:07.644Z,34.27
2018-02-24T01:59:35.266Z,30.57
2018-02-24T02:02:02.858Z,33.93
2018-02-24T02:04:30.502Z,34.33
2018-02-24T02:06:58.096Z,36.20
2018-02-24T02:09:26.089Z,33.07
2018-02-24T02:11:54.949Z,34.13
2018-02-24T02:14:24.433Z,36.90
2018-02-24T02:16:52.044Z,35.30
2018-02-24T02:19:20.417Z,33.43
2018-02-24T02:21:48.824Z,34.80
2018-02-24T02:24:18.869Z,38.30
2018-02-24T02:26:47.369Z,35.00
2018-02-24T02:29:14.989Z,35.30
2018-02-24T02:31:42.574Z,32.10
2018-02-24T02:34:10.195Z,38.07
2018-02-24T02:36:37.810Z,38.90
2018-02-24T02:39:05.447Z,34.77
2018-02-24T02:41:33.055Z,36.03
2018-02-24T02:44:01.177Z,33.93
2018-02-24T02:46:30.512Z,37.40
2018-02-24T02:48:58.474Z,30.80
2018-02-24T02:51:26.855Z,38.63
2018-02-24T02:53:54.659Z,34.73
2018-02-24T02:56:22.513Z,34.03
2018-02-24T02:58:50.454Z,33.73
2018-02-24T03:01:19.341Z,37.00
2018-02-24T03:03:46.988Z,33.83
2018-02-24T03:06:14.703Z,34.13
2018-02-24T03:08:42.314Z,31.67
2018-02-24T03:11:09.936Z,35.27
2018-02-24T03:13:38.662Z,34.43
2018-02-24T03:16:07.682Z,40.90
2018-02-24T03:18:35.508Z,35.93
2018-02-24T03:21:03.534Z,34.37
2018-02-24T03:23:31.125Z,36.83
2018-02-24T03:25:59.585Z,38.37
2018-02-24T03:28:27.211Z,38.23
2018-02-24T03:30:54.858Z,37.90
2018-02-24T03:33:22.468Z,34.63
2018-02-24T03:35:50.548Z,41.20
2018-02-24T03:38:18.232Z,36.50
2018-02-24T03:40:45.866Z,35.83
2018-02-24T03:43:15.072Z,39.73
2018-02-24T03:46:01.908Z,31.80
2018-02-24T03:48:31.150Z,35.33
2018-02-24T03:50:59.760Z,39.00
2018-02-24T03:53:27.362Z,35.23
2018-02-24T03:55:55.017Z,35.57
2018-02-24T03:58:25.955Z,37.60
2018-02-24T04:00:55.615Z,37.47
2018-02-24T04:03:23.199Z,35.90
2018-02-24T04:05:50.826Z,40.80
2018-02-24T04:08:18.407Z,36.93
2018-02-24T04:10:46.109Z,33.77
2018-02-24T04:13:15.402Z,39.23
2018-02-24T04:15:44.078Z,37.83
2018-02-24T04:18:12.450Z,44.63
2018-02-24T04:20:40.824Z,35.40
2018-02-24T04:23:09.221Z,41.33
2018-02-24T04:25:37.588Z,40.40
2018-02-24T04:28:05.972Z,39.23
2018-02-24T04:30:34.271Z,41.93
2018-02-24T04:33:04.107Z,37.90
2018-02-24T04:35:31.738Z,40.13
2018-02-24T04:37:59.335Z,41.77
2018-02-24T04:40:26.969Z,39.33
2018-02-24T04:42:54.597Z,46.63
2018-02-24T04:45:24.017Z,43.27
2018-02-24T04:47:52.032Z,38.37
2018-02-24T04:50:19.653Z,40.63
2018-02-24T04:52:48.018Z,41.30
2018-02-24T04:55:16.398Z,41.50
2018-02-24T04:57:44.020Z,44.43
2018-02-24T05:00:11.903Z,42.70
2018-02-24T05:02:40.123Z,40.47
2018-02-24T05:05:08.605Z,44.47
2018-02-24T05:07:36.187Z,39.80
2018-02-24T05:10:03.798Z,42.83
2018-02-24T05:12:32.179Z,48.07
2018-02-24T05:15:00.532Z,48.47
2018-02-24T05:17:28.168Z,39.77
2018-02-24T05:19:55.763Z,37.33
2018-02-24T05:22:23.381Z,35.50
2018-02-24T05:24:51.038Z,41.33
2018-02-24T05:27:18.626Z,47.30
2018-02-24T05:29:46.265Z,41.60
2018-02-24T05:32:15.745Z,40.93
2018-02-24T05:34:44.711Z,37.47
2018-02-24T05:37:13.554Z,47.90
2018-02-24T05:39:41.190Z,43.37
2018-02-24T05:42:08.798Z,45.50
2018-02-24T05:44:36.479Z,43.90
2018-02-24T05:47:04.116Z,43.40
2018-02-24T05:49:32.117Z,40.33
2018-02-24T05:52:00.134Z,42.60
2018-02-24T05:54:28.377Z,42.23
2018-02-24T05:56:58.720Z,42.87
2018-02-24T05:59:26.303Z,41.53
2018-02-24T06:01:53.919Z,43.83
2018-02-24T06:04:22.016Z,41.10
2018-02-24T06:06:50.409Z,47.70
2018-02-24T06:09:18.021Z,39.23
2018-02-24T06:11:47.651Z,41.67
2018-02-24T06:14:15.269Z,43.80
2018-02-24T06:16:43.288Z,43.83
2018-02-24T06:19:10.897Z,44.80
2018-02-24T06:21:39.722Z,45.87
2018-02-24T06:24:07.299Z,46.80
2018-02-24T06:26:35.294Z,43.93
2018-02-24T06:29:04.317Z,44.20
2018-02-24T06:31:33.525Z,45.03
2018-02-24T06:34:01.157Z,42.73
2018-02-24T06:36:30.330Z,43.40
2018-02-24T06:38:58.535Z,45.83
2018-02-24T06:41:26.741Z,46.70
2018-02-24T06:43:55.771Z,43.17
2018-02-24T06:46:23.634Z,46.10
2018-02-24T06:48:51.270Z,39.70
2018-02-24T06:51:18.889Z,47.63
2018-02-24T06:53:46.545Z,42.60
2018-02-24T06:56:14.182Z,48.13
2018-02-24T06:58:42.543Z,42.00
2018-02-24T07:01:10.181Z,45.90
2018-02-24T07:03:38.466Z,47.73
2018-02-24T07:06:08.927Z,48.23
2018-02-24T07:08:36.560Z,45.43
2018-02-24T07:11:04.872Z,43.87
2018-02-24T07:13:33.161Z,39.83
2018-02-24T07:16:00.770Z,43.30
2018-02-24T07:18:28.389Z,45.83
2018-02-24T07:20:57.286Z,39.40
2018-02-24T07:23:25.292Z,41.83
2018-02-24T07:25:52.877Z,44.37
2018-02-24T07:28:20.691Z,44.40
2018-02-24T07:30:48.631Z,43.93
2018-02-24T07:33:16.262Z,44.43
2018-02-24T07:35:44.414Z,42.23
2018-02-24T07:38:12.824Z,41.77
2018-02-24T07:40:41.326Z,39.23
2018-02-24T07:43:10.447Z,42.70
2018-02-24T07:45:38.802Z,39.70
2018-02-24T07:48:06.424Z,43.50
2018-02-24T07:50:34.017Z,36.07
2018-02-24T07:53:01.621Z,38.47
2018-02-24T07:55:30.433Z,42.40
2018-02-24T07:57:59.525Z,38.37
2018-02-24T08:00:27.174Z,37.37
2018-02-24T08:02:54.779Z,42.20
2018-02-24T08:05:22.368Z,39.37
2018-02-24T08:07:52.744Z,38.43
2018-02-24T08:10:20.469Z,44.83
2018-02-24T08:12:50.807Z,39.87
2018-02-24T08:15:18.842Z,41.20
2018-02-24T08:17:46.603Z,43.07
2018-02-24T08:20:16.906Z,40.27
2018-02-24T08:22:44.900Z,38.43
2018-02-24T08:25:12.491Z,36.17
2018-02-24T08:27:40.857Z,35.30
2018-02-24T08:30:08.588Z,38.20
2018-02-24T08:32:36.973Z,36.50
2018-02-24T08:35:05.572Z,37.53
2018-02-24T08:37:33.266Z,35.20
2018-02-24T08:40:01.668Z,33.17
2018-02-24T08:42:29.499Z,36.63
2018-02-24T08:44:57.081Z,33.73
2018-02-24T08:47:25.972Z,38.07
2018-02-24T08:49:54.096Z,36.70
2018-02-24T08:52:21.680Z,42.90
2018-02-24T08:54:49.321Z,30.30
2018-02-24T08:57:17.884Z,35.73
2018-02-24T08:59:45.871Z,32.93
2018-02-24T09:02:13.777Z,37.83
2018-02-24T09:04:42.194Z,35.27
2018-02-24T09:07:11.153Z,32.67
2018-02-24T09:09:39.003Z,34.40
2018-02-24T09:12:07.548Z,37.90
2018-02-24T09:14:35.147Z,37.10
2018-02-24T09:17:04.625Z,34.40
2018-02-24T09:20:01.379Z,36.70
2018-02-24T09:22:29.232Z,34.20
2018-02-24T09:24:58.245Z,33.53
2018-02-24T09:27:25.867Z,33.57
2018-02-24T09:29:53.486Z,29.23
2018-02-24T09:32:21.064Z,35.83
2018-02-24T09:34:48.670Z,33.10
2018-02-24T09:37:17.101Z,32.20
2018-02-24T09:39:44.756Z,29.73
2018-02-24T09:42:14.270Z,31.00
2018-02-24T09:44:42.079Z,29.20
2018-02-24T09:47:12.601Z,32.07
2018-02-24T09:49:40.202Z,31.00
2018-02-24T09:52:07.780Z,28.00
2018-02-24T09:54:36.155Z,28.47
2018-02-24T09:57:04.064Z,35.30
2018-02-24T09:59:33.136Z,31.53
2018-02-24T10:02:01.135Z,31.57
2018-02-24T10:04:28.720Z,91.37
2018-02-24T10:06:56.301Z,93.47
2018-02-24T10:09:23.932Z,38.47
2018-02-24T10:11:52.260Z,32.87
2018-02-24T10:14:19.860Z,29.57
2018-02-24T10:16:48.203Z,27.70
2018-02-24T10:19:15.807Z,27.30
2018-02-24T10:21:45.126Z,31.90
2018-02-24T10:24:13.311Z,25.40
2018-02-24T10:26:40.954Z,23.67
2018-02-24T10:29:08.567Z,27.60
2018-02-24T10:31:36.166Z,25.90
2018-02-24T10:34:05.610Z,24.13
2018-02-24T10:36:33.597Z,27.53
2018-02-24T10:39:02.253Z,27.03
2018-02-24T10:41:29.832Z,27.00
2018-02-24T10:43:57.421Z,23.90
2018-02-24T10:46:25.016Z,22.77
2018-02-24T10:49:04.699Z,26.70
2018-02-24T10:51:32.280Z,24.87
2018-02-24T10:54:00.490Z,25.30
2018-02-24T10:56:31.122Z,23.73
2018-02-24T10:58:59.556Z,26.87
2018-02-24T11:01:27.158Z,23.50
2018-02-24T11:03:55.520Z,27.77
2018-02-24T11:06:23.865Z,25.80
2018-02-24T11:08:51.451Z,24.23
2018-02-24T11:11:19.039Z,22.23
2018-02-24T11:13:48.935Z,24.53
2018-02-24T11:16:17.550Z,28.83
2018-02-24T11:18:45.123Z,21.87
2018-02-24T11:21:12.735Z,25.10
2018-02-24T11:23:41.229Z,27.20
2018-02-24T11:26:09.274Z,21.17
2018-02-24T11:28:38.305Z,25.63
2018-02-24T11:31:06.308Z,27.73
2018-02-24T11:33:33.873Z,21.50
2018-02-24T11:36:01.535Z,24.93
2018-02-24T11:38:29.117Z,23.27
2018-02-24T11:40:56.729Z,25.27
2018-02-24T11:43:24.311Z,30.27
2018-02-24T11:45:51.953Z,25.67
2018-02-24T11:48:19.510Z,25.90
2018-02-24T11:50:48.804Z,25.30
2018-02-24T11:53:18.116Z,27.23
2018-02-24T11:55:46.560Z,125.63
2018-02-24T11:58:14.947Z,30.33
2018-02-24T12:00:42.581Z,23.77
2018-02-24T12:03:10.151Z,26.33
2018-02-24T12:05:38.755Z,25.87
2018-02-24T12:08:07.619Z,26.60
2018-02-24T12:10:36.048Z,22.50
2018-02-24T12:13:03.629Z,26.50
2018-02-24T12:15:31.655Z,24.00
2018-02-24T12:18:00.691Z,23.90
2018-02-24T12:20:28.377Z,25.53
2018-02-24T12:22:55.954Z,24.50
2018-02-24T12:25:24.386Z,24.97
2018-02-24T12:27:52.087Z,21.60
2018-02-24T12:30:33.672Z,23.20
2018-02-24T12:33:03.072Z,22.50
2018-02-24T12:35:31.144Z,23.73
2018-02-24T12:38:01.733Z,22.83
2018-02-24T12:40:29.343Z,22.13
2018-02-24T12:42:56.910Z,28.20
2018-02-24T12:45:25.263Z,21.20
2018-02-24T12:47:53.287Z,23.90
2018-02-24T12:50:22.650Z,21.43
2018-02-24T12:52:50.306Z,21.03
2018-02-24T12:55:17.905Z,22.37
2018-02-24T12:57:45.989Z,24.23
2018-02-24T13:00:14.324Z,24.53
2018-02-24T13:02:42.315Z,28.30
2018-02-24T13:05:13.168Z,26.30
2018-02-24T13:07:41.348Z,20.13
2018-02-24T13:10:11.558Z,21.00
2018-02-24T13:12:39.328Z,20.47
2018-02-24T13:15:07.406Z,22.57
2018-02-24T13:17:37.631Z,21.77
2018-02-24T13:20:05.399Z,21.77
2018-02-24T13:22:32.980Z,23.33
2018-02-24T13:25:01.042Z,22.23
2018-02-24T13:27:28.702Z,22.97
2018-02-24T13:29:58.472Z,21.73
2018-02-24T13:32:26.090Z,20.43
2018-02-24T13:34:53.690Z,20.80
2018-02-24T13:37:22.371Z,21.53
2018-02-24T13:39:50.454Z,20.70
2018-02-24T13:42:20.312Z,22.17
2018-02-24T13:44:49.125Z,19.37
2018-02-24T13:47:16.735Z,20.33
2018-02-24T13:49:44.360Z,21.10
2018-02-24T13:52:12.604Z,20.60
2018-02-24T13:54:40.768Z,21.73
2018-02-24T13:57:09.108Z,18.20
2018-02-24T13:59:36.687Z,19.77
2018-02-24T14:02:05.039Z,19.17
2018-02-24T14:04:32.615Z,19.40
2018-02-24T14:07:00.800Z,16.70
2018-02-24T14:09:29.164Z,17.80
2018-02-24T14:11:57.195Z,19.90
2018-02-24T14:14:24.791Z,21.80
2018-02-24T14:16:53.049Z,16.83
2018-02-24T14:19:20.682Z,20.70
2018-02-24T14:21:48.267Z,16.73
2018-02-24T14:24:40.414Z,16.00
2018-02-24T14:27:09.514Z,16.73
2018-02-24T14:29:37.097Z,16.77
2018-02-24T14:32:04.881Z,16.20
2018-02-24T14:34:32.527Z,16.90
2018-02-24T14:37:06.834Z,17.07
2018-02-24T14:39:36.161Z,13.23
2018-02-24T14:42:03.971Z,15.57
2018-02-24T14:44:31.877Z,18.63
2018-02-24T14:47:01.231Z,12.90
2018-02-24T14:49:28.820Z,16.23
2018-02-24T14:51:56.443Z,28.33
2018-02-24T14:54:24.213Z,12.30
2018-02-24T14:56:52.103Z,17.10
2018-02-24T14:59:19.988Z,16.63
2018-02-24T15:01:48.430Z,14.10
2018-02-24T15:04:16.047Z,16.37
2018-02-24T15:06:44.417Z,14.70
2018-02-24T15:09:12.805Z,13.57
2018-02-24T15:11:41.021Z,12.93
2018-02-24T15:14:08.611Z,16.50
2018-02-24T15:16:36.581Z,15.67
2018-02-24T15:19:05.044Z,12.80
2018-02-24T15:21:33.628Z,12.50
2018-02-24T15:24:01.498Z,15.67
2018-02-24T15:26:29.769Z,14.87
2018-02-24T15:28:59.008Z,13.30
2018-02-24T15:31:27.396Z,17.23
2018-02-24T15:33:55.742Z,13.40
2018-02-24T15:36:24.117Z,16.00
2018-02-24T15:38:52.039Z,13.87
2018-02-24T15:41:19.653Z,15.80
2018-02-24T15:43:49.020Z,14.80
2018-02-24T15:46:16.686Z,14.40
2018-02-24T15:48:44.255Z,13.47
2018-02-24T15:51:11.859Z,15.73
2018-02-24T15:53:40.248Z,13.63
2018-02-24T15:56:08.596Z,12.90
2018-02-24T15:58:36.420Z,10.70
2018-02-24T16:01:04.879Z,10.93
2018-02-24T16:03:38.365Z,13.60
2018-02-24T16:06:07.199Z,11.37
2018-02-24T16:08:36.584Z,13.20
2018-02-24T16:11:05.964Z,12.90
2018-02-24T16:13:35.955Z,13.33
2018-02-24T16:16:05.628Z,12.57
2018-02-24T16:18:34.892Z,16.20
2018-02-24T16:21:04.123Z,15.30
2018-02-24T16:23:34.784Z,12.93
2018-02-24T16:26:04.240Z,14.10
2018-02-24T16:28:33.525Z,12.47
2018-02-24T16:31:03.131Z,10.40
2018-02-24T16:33:32.448Z,10.57
2018-02-24T16:36:02.324Z,13.70
2018-02-24T16:38:31.836Z,13.30
2018-02-24T16:41:01.080Z,12.10
2018-02-24T16:43:30.360Z,13.37
2018-02-24T16:45:59.589Z,12.00
2018-02-24T16:48:28.849Z,15.17
2018-02-24T16:50:58.245Z,12.40
2018-02-24T16:53:27.639Z,13.63
2018-02-24T16:55:57.243Z,12.63
2018-02-24T16:58:26.600Z,17.83
2018-02-24T17:00:55.815Z,14.60
2018-02-24T17:03:25.297Z,10.50
2018-02-24T17:05:54.592Z,13.50
2018-02-24T17:08:23.831Z,13.80
2018-02-24T17:10:53.314Z,14.57
2018-02-24T17:13:22.727Z,13.73
2018-02-24T17:15:52.277Z,10.50
2018-02-24T17:18:22.345Z,10.30
2018-02-24T17:20:52.400Z,15.70
2018-02-24T17:23:23.920Z,8.07
2018-02-24T17:25:53.143Z,10.30
2018-02-24T17:28:21.139Z,23.67
2018-02-24T17:30:48.855Z,14.03
2018-02-24T17:33:16.457Z,12.23
2018-02-24T17:35:44.842Z,14.60
2018-02-24T17:38:13.208Z,9.83
2018-02-24T17:40:41.851Z,11.43
2018-02-24T17:43:09.473Z,14.10
2018-02-24T17:45:37.542Z,15.13
2018-02-24T17:48:06.591Z,10.53
2018-02-24T17:50:34.161Z,11.60
2018-02-24T17:53:01.723Z,9.40
2018-02-24T17:55:31.260Z,12.30
2018-02-24T17:58:12.258Z,10.80
2018-02-24T18:00:42.950Z,10.27
2018-02-24T18:03:11.352Z,13.30
2018-02-24T18:05:41.359Z,12.80
2018-02-24T18:08:09.098Z,14.53
2018-02-24T18:10:36.663Z,13.07
2018-02-24T18:13:04.266Z,13.43
2018-02-24T18:15:32.609Z,12.30
2018-02-24T18:18:00.599Z,13.40
2018-02-24T18:20:29.588Z,14.43
2018-02-24T18:22:57.248Z,14.57
2018-02-24T18:25:25.081Z,12.73
2018-02-24T18:27:52.809Z,13.47
2018-02-24T18:30:20.426Z,12.20
2018-02-24T18:32:48.771Z,13.17
2018-02-24T18:35:17.382Z,11.77
2018-02-24T18:37:44.984Z,14.20
2018-02-24T18:40:12.609Z,13.90
2018-02-24T18:42:40.516Z,12.37
2018-02-24T18:45:08.477Z,13.00
2018-02-24T18:47:36.141Z,12.17
2018-02-24T18:50:03.750Z,10.77
2018-02-24T18:52:31.518Z,11.43
2018-02-24T18:54:59.103Z,13.23
2018-02-24T18:57:28.557Z,11.80
2018-02-24T18:59:57.224Z,13.50
2018-02-24T19:02:24.805Z,11.93
2018-02-24T19:04:52.425Z,14.10
2018-02-24T19:07:20.029Z,10.33
2018-02-24T19:09:47.746Z,12.70
2018-02-24T19:12:15.313Z,10.00
2018-02-24T19:14:43.189Z,12.60
2018-02-24T19:17:11.666Z,15.20
2018-02-24T19:19:39.347Z,10.07
2018-02-24T19:22:07.013Z,11.73
2018-02-24T19:24:34.623Z,12.50
2018-02-24T19:27:02.203Z,10.70
2018-02-24T19:29:30.399Z,10.80
2018-02-24T19:31:57.985Z,11.40
2018-02-24T19:34:26.363Z,11.63
2018-02-24T19:36:54.720Z,11.77
2018-02-24T19:39:22.432Z,11.27
2018-02-24T19:41:50.389Z,16.53
2018-02-24T19:44:18.021Z,11.57
2018-02-24T19:46:45.665Z,14.07
2018-02-24T19:49:13.818Z,10.80
2018-02-24T19:51:41.868Z,11.07
2018-02-24T19:54:09.491Z,8.70
2018-02-24T19:56:37.920Z,12.27
2018-02-24T19:59:05.744Z,11.27
2018-02-24T20:01:33.418Z,9.93
2018-02-24T20:04:01.913Z,12.00
2018-02-24T20:06:29.933Z,70.47
2018-02-24T20:08:57.511Z,16.93
2018-02-24T20:11:25.126Z,12.13
2018-02-24T20:13:53.141Z,10.17
2018-02-24T20:16:21.659Z,10.13
2018-02-24T20:18:49.636Z,13.30
2018-02-24T20:21:17.897Z,12.17
2018-02-24T20:23:47.079Z,15.23
2018-02-24T20:26:16.507Z,16.70
2018-02-24T20:28:44.255Z,9.10
2018-02-24T20:31:13.159Z,9.43
2018-02-24T20:33:40.949Z,11.27
2018-02-24T20:36:08.569Z,8.63
2018-02-24T20:38:36.995Z,9.00
2018-02-24T20:41:04.804Z,8.67
2018-02-24T20:43:32.382Z,8.03
2018-02-24T20:46:00.468Z,12.43
2018-02-24T20:48:28.542Z,10.07
2018-02-24T20:50:56.293Z,9.70
2018-02-24T20:53:23.872Z,13.37
2018-02-24T20:55:51.475Z,8.27
2018-02-24T20:58:19.833Z,8.20
2018-02-24T21:00:47.621Z,10.90
2018-02-24T21:03:15.997Z,11.47
2018-02-24T21:05:44.249Z,8.67
2018-02-24T21:08:12.659Z,8.57
2018-02-24T21:10:40.398Z,10.63
2018-02-24T21:13:09.072Z,10.87
2018-02-24T21:15:36.744Z,12.20
2018-02-24T21:18:04.725Z,12.57
2018-02-24T21:20:32.336Z,8.97
2018-02-24T21:22:59.961Z,11.47
2018-02-24T21:25:28.346Z,13.17
2018-02-24T21:27:56.018Z,9.33
2018-02-24T21:30:24.696Z,9.90
2018-02-24T21:32:52.356Z,8.77
2018-02-24T21:35:19.933Z,9.30
2018-02-24T21:37:48.318Z,8.73
2018-02-24T21:40:16.649Z,7.53
2018-02-24T21:42:44.356Z,12.37
2018-02-24T21:45:12.441Z,13.03
2018-02-24T21:47:41.458Z,9.17
2018-02-24T21:50:09.035Z,9.17
2018-02-24T21:52:37.570Z,10.63
2018-02-24T21:55:05.361Z,12.87
2018-02-24T21:57:33.666Z,9.40
2018-02-24T22:00:01.673Z,8.13
2018-02-24T22:02:29.299Z,11.20
2018-02-24T22:04:56.927Z,10.73
2018-02-24T22:07:25.318Z,7.10
2018-02-24T22:09:53.644Z,8.90
2018-02-24T22:12:21.824Z,9.00
2018-02-24T22:14:49.670Z,8.93
2018-02-24T22:17:17.688Z,9.70
2018-02-24T22:19:45.786Z,12.20
2018-02-24T22:22:13.580Z,8.77
2018-02-24T22:24:41.433Z,15.97
2018-02-24T22:27:09.105Z,9.93
2018-02-24T22:29:38.454Z,9.47
2018-02-24T22:32:06.863Z,10.00
2018-02-24T22:34:34.585Z,9.47
2018-02-24T22:37:02.278Z,7.53
2018-02-24T22:39:29.886Z,11.40
2018-02-24T22:41:58.018Z,10.57
2018-02-24T22:44:26.392Z,22.70
2018-02-24T22:46:54.747Z,19.07
2018-02-24T22:49:22.355Z,14.60
2018-02-24T22:51:50.554Z,11.43
2018-02-24T22:54:18.217Z,9.13
2018-02-24T22:56:46.227Z,15.00
2018-02-24T22:59:13.832Z,8.30
2018-02-24T23:01:41.502Z,9.53
2018-02-24T23:04:09.668Z,11.33
2018-02-24T23:06:37.946Z,10.53
2018-02-24T23:09:05.552Z,8.70
2018-02-24T23:11:33.124Z,7.47
2018-02-24T23:14:01.155Z,7.73
2018-02-24T23:16:28.910Z,9.00
2018-02-24T23:18:56.559Z,9.73
2018-02-24T23:21:24.986Z,8.23
2018-02-24T23:23:52.594Z,8.83
2018-02-24T23:26:20.175Z,7.97
2018-02-24T23:28:47.777Z,7.47
2018-02-24T23:31:15.556Z,9.90
2018-02-24T23:33:44.367Z,9.93
2018-02-24T23:36:12.153Z,9.73
2018-02-24T23:38:39.756Z,10.47
2018-02-24T23:41:07.377Z,9.83
2018-02-24T23:43:35.030Z,9.23
2018-02-24T23:46:05.955Z,9.57
2018-02-24T23:48:33.587Z,10.30
2018-02-24T23:51:01.593Z,8.63
2018-02-24T23:53:29.241Z,8.77
2018-02-24T23:55:57.766Z,7.40
2018-02-24T23:58:25.793Z,9.60
